createdAt,value
2023-01-16T00:02:33.513Z,4.36
2023-01-16T00:07:31.061Z,4.28
2023-01-16T00:12:27.798Z,4.16
2023-01-16T00:17:24.570Z,4.32
2023-01-16T00:22:21.388Z,4.46
2023-01-16T00:27:18.927Z,4.46
2023-01-16T00:32:15.987Z,4.46
2023-01-16T00:37:12.905Z,4.36
2023-01-16T00:42:09.840Z,4.21
2023-01-16T00:47:07.493Z,4.02
2023-01-16T00:52:04.939Z,3.98
2023-01-16T00:57:01.776Z,4.03
2023-01-16T01:01:58.683Z,4.26
2023-01-16T01:06:56.405Z,4.17
2023-01-16T01:11:53.238Z,4.23
2023-01-16T01:16:50.045Z,4.10
2023-01-16T01:21:46.999Z,3.86
2023-01-16T01:26:44.442Z,4.05
2023-01-16T01:31:41.290Z,4.37
2023-01-16T01:36:38.108Z,4.17
2023-01-16T01:41:34.866Z,4.49
2023-01-16T01:46:41.232Z,4.16
2023-01-16T01:51:42.958Z,4.50
2023-01-16T01:56:44.126Z,4.49
2023-01-16T02:01:41.645Z,4.24
2023-01-16T02:06:44.787Z,4.44
2023-01-16T02:11:49.277Z,4.36
2023-01-16T02:17:06.771Z,4.27
2023-01-16T02:22:36.758Z,4.32
2023-01-16T02:27:53.525Z,4.32
2023-01-16T02:33:05.155Z,4.29
2023-01-16T02:38:11.418Z,4.10
2023-01-16T02:43:21.026Z,4.10
2023-01-16T02:48:28.266Z,4.07
2023-01-16T02:53:30.011Z,3.59
2023-01-16T02:58:28.563Z,4.05
2023-01-16T03:03:38.605Z,3.76
2023-01-16T03:08:44.941Z,3.75
2023-01-16T03:13:56.043Z,4.01
2023-01-16T03:19:06.392Z,3.99
2023-01-16T03:24:08.823Z,3.64
2023-01-16T03:29:14.162Z,3.88
2023-01-16T03:34:23.365Z,3.22
2023-01-16T03:39:25.440Z,3.41
2023-01-16T03:44:29.167Z,3.17
2023-01-16T03:49:32.631Z,3.66
2023-01-16T03:54:38.106Z,3.48
2023-01-16T03:59:36.416Z,3.63
2023-01-16T04:04:41.327Z,3.74
2023-01-16T04:09:43.802Z,3.58
2023-01-16T04:14:42.829Z,3.69
2023-01-16T04:19:40.365Z,3.74
2023-01-16T04:24:37.352Z,3.58
2023-01-16T04:29:34.212Z,3.26
2023-01-16T04:34:30.995Z,3.67
2023-01-16T04:39:28.529Z,3.55
2023-01-16T04:44:25.916Z,3.60
2023-01-16T04:49:22.655Z,3.63
2023-01-16T04:54:20.725Z,3.41
2023-01-16T04:59:18.683Z,3.45
2023-01-16T05:04:16.649Z,3.57
2023-01-16T05:09:13.610Z,3.75
2023-01-16T05:14:11.264Z,3.69
2023-01-16T05:19:10.081Z,3.54
2023-01-16T05:24:07.255Z,3.74
2023-01-16T05:29:12.500Z,3.90
2023-01-16T05:34:10.589Z,4.04
2023-01-16T05:39:07.441Z,4.16
2023-01-16T05:44:05.379Z,4.11
2023-01-16T05:49:02.590Z,3.51
2023-01-16T05:54:00.163Z,4.00
2023-01-16T05:58:57.693Z,4.25
2023-01-16T06:03:54.720Z,4.16
2023-01-16T06:08:55.597Z,4.19
2023-01-16T06:13:53.235Z,4.15
2023-01-16T06:18:50.140Z,3.94
2023-01-16T06:23:46.968Z,4.51
2023-01-16T06:28:43.995Z,4.21
2023-01-16T06:33:41.444Z,4.77
2023-01-16T06:38:38.264Z,4.73
2023-01-16T06:43:35.237Z,4.77
2023-01-16T06:48:32.408Z,5.34
2023-01-16T06:53:30.332Z,5.53
2023-01-16T06:58:27.402Z,5.48
2023-01-16T07:03:25.139Z,5.74
2023-01-16T07:08:24.094Z,6.13
2023-01-16T07:13:27.378Z,6.35
2023-01-16T07:18:42.240Z,6.44
2023-01-16T07:23:42.766Z,6.53
2023-01-16T07:28:40.654Z,6.32
2023-01-16T07:33:37.598Z,6.96
2023-01-16T07:38:34.435Z,7.07
2023-01-16T07:43:31.320Z,7.17
2023-01-16T07:48:28.950Z,7.02
2023-01-16T07:53:27.488Z,7.21
2023-01-16T07:58:24.497Z,7.07
2023-01-16T08:03:21.620Z,7.19
2023-01-16T08:08:20.047Z,7.30
2023-01-16T08:13:16.909Z,7.33
2023-01-16T08:18:23.075Z,7.20
2023-01-16T08:23:25.817Z,7.30
2023-01-16T08:28:25.343Z,7.74
2023-01-16T08:33:22.170Z,8.19
2023-01-16T08:38:19.107Z,8.54
2023-01-16T08:43:43.180Z,8.71
2023-01-16T08:49:02.256Z,8.93
2023-01-16T08:54:02.006Z,9.27
2023-01-16T08:58:59.627Z,9.64
2023-01-16T09:03:56.481Z,9.84
2023-01-16T09:08:53.255Z,9.92
2023-01-16T09:13:50.621Z,9.74
2023-01-16T09:18:53.113Z,9.85
2023-01-16T09:23:53.268Z,10.02
2023-01-16T09:28:50.156Z,9.36
2023-01-16T09:33:48.921Z,9.89
2023-01-16T09:38:48.521Z,9.72
2023-01-16T09:43:50.421Z,10.02
2023-01-16T09:48:58.062Z,9.99
2023-01-16T09:54:20.884Z,10.39
2023-01-16T09:59:26.245Z,10.55
2023-01-16T10:04:28.313Z,10.70
2023-01-16T10:09:32.875Z,10.30
2023-01-16T10:15:03.481Z,11.00
2023-01-16T10:20:30.592Z,10.84
2023-01-16T10:25:32.686Z,10.79
2023-01-16T10:30:36.734Z,11.02
2023-01-16T10:35:42.961Z,10.81
2023-01-16T10:40:42.366Z,10.88
2023-01-16T10:45:58.120Z,11.29
2023-01-16T10:51:06.338Z,11.38
2023-01-16T10:56:04.883Z,11.41
2023-01-16T11:01:04.192Z,11.16
2023-01-16T11:06:12.968Z,10.48
2023-01-16T11:11:27.136Z,9.89
2023-01-16T11:16:49.478Z,10.11
2023-01-16T11:21:51.457Z,10.13
2023-01-16T11:26:53.703Z,10.19
2023-01-16T11:31:57.114Z,10.24
2023-01-16T11:36:55.674Z,9.44
2023-01-16T11:41:57.021Z,9.82
2023-01-16T11:46:59.099Z,9.44
2023-01-16T11:52:03.577Z,9.09
2023-01-16T11:57:21.526Z,8.98
2023-01-16T12:02:42.741Z,8.67
2023-01-16T12:07:54.442Z,8.97
2023-01-16T12:13:21.391Z,8.80
2023-01-16T12:18:29.455Z,8.89
2023-01-16T12:23:53.356Z,8.94
2023-01-16T12:29:07.049Z,9.02
2023-01-16T12:34:19.813Z,8.97
2023-01-16T12:39:27.189Z,8.66
2023-01-16T12:44:41.694Z,8.91
2023-01-16T12:49:56.735Z,9.45
2023-01-16T12:55:16.840Z,9.29
2023-01-16T13:00:18.145Z,9.36
2023-01-16T13:05:19.350Z,9.16
2023-01-16T13:10:41.556Z,9.19
2023-01-16T13:15:44.280Z,8.64
2023-01-16T13:20:42.868Z,8.67
2023-01-16T13:25:43.684Z,8.86
2023-01-16T13:30:45.213Z,8.81
2023-01-16T13:36:00.141Z,8.71
2023-01-16T13:41:19.907Z,8.84
2023-01-16T13:46:17.991Z,8.90
2023-01-16T13:51:23.078Z,8.89
2023-01-16T13:56:23.220Z,8.86
2023-01-16T14:01:32.528Z,8.84
2023-01-16T14:06:29.443Z,8.68
2023-01-16T14:11:34.772Z,8.81
2023-01-16T14:16:35.739Z,8.64
2023-01-16T14:21:42.509Z,8.60
2023-01-16T14:26:45.601Z,8.63
2023-01-16T14:31:45.607Z,8.51
2023-01-16T14:36:45.263Z,8.22
2023-01-16T14:42:00.219Z,8.44
2023-01-16T14:47:28.593Z,8.24
2023-01-16T14:53:05.995Z,8.17
2023-01-16T14:58:07.194Z,8.12
2023-01-16T15:03:09.129Z,8.18
2023-01-16T15:08:06.920Z,8.17
2023-01-16T15:13:21.447Z,8.35
2023-01-16T15:18:38.888Z,8.09
2023-01-16T15:23:37.782Z,8.04
2023-01-16T15:28:44.915Z,7.93
2023-01-16T15:33:45.661Z,7.98
2023-01-16T15:38:45.636Z,7.80
2023-01-16T15:44:06.807Z,7.79
2023-01-16T15:49:29.402Z,7.81
2023-01-16T15:54:27.310Z,7.58
2023-01-16T15:59:27.341Z,7.55
2023-01-16T16:04:24.552Z,7.54
2023-01-16T16:09:25.259Z,7.37
2023-01-16T16:14:46.255Z,7.24
2023-01-16T16:19:43.354Z,7.11
2023-01-16T16:24:41.007Z,6.87
2023-01-16T16:29:38.912Z,7.37
2023-01-16T16:34:36.965Z,6.95
2023-01-16T16:39:49.813Z,7.67
2023-01-16T16:45:09.319Z,7.72
2023-01-16T16:50:30.478Z,7.54
2023-01-16T16:55:30.445Z,7.69
2023-01-16T17:00:30.713Z,7.69
2023-01-16T17:05:28.472Z,7.45
2023-01-16T17:10:36.831Z,7.65
2023-01-16T17:15:34.466Z,7.44
2023-01-16T17:20:32.383Z,7.53
2023-01-16T17:25:29.458Z,7.91
2023-01-16T17:30:26.437Z,7.71
2023-01-16T17:35:24.102Z,7.44
2023-01-16T17:40:21.022Z,7.13
2023-01-16T17:45:45.686Z,7.24
2023-01-16T17:50:43.446Z,7.30
2023-01-16T17:55:56.055Z,6.91
2023-01-16T18:00:55.917Z,7.25
2023-01-16T18:05:55.363Z,7.17
2023-01-16T18:10:52.220Z,7.26
2023-01-16T18:16:07.173Z,7.54
2023-01-16T18:21:29.337Z,7.55
2023-01-16T18:26:26.910Z,7.60
2023-01-16T18:31:23.872Z,7.49
2023-01-16T18:36:24.504Z,7.26
2023-01-16T18:41:39.607Z,7.18
2023-01-16T18:46:54.736Z,7.02
2023-01-16T18:52:10.538Z,7.21
2023-01-16T18:57:30.890Z,7.29
2023-01-16T19:02:39.823Z,7.17
2023-01-16T19:07:44.453Z,7.23
2023-01-16T19:12:41.723Z,7.27
2023-01-16T19:17:38.594Z,7.35
2023-01-16T19:22:35.475Z,7.19
2023-01-16T19:27:36.239Z,7.48
2023-01-16T19:32:33.205Z,7.46
2023-01-16T19:37:30.127Z,7.73
2023-01-16T19:42:45.138Z,7.66
2023-01-16T19:47:42.780Z,7.30
2023-01-16T19:52:39.637Z,7.78
2023-01-16T19:57:36.496Z,7.74
2023-01-16T20:02:34.599Z,7.38
2023-01-16T20:07:32.286Z,7.60
2023-01-16T20:12:30.065Z,7.49
2023-01-16T20:17:40.663Z,7.80
2023-01-16T20:22:38.371Z,7.92
2023-01-16T20:27:36.038Z,7.88
2023-01-16T20:32:32.976Z,7.90
2023-01-16T20:37:30.871Z,7.72
2023-01-16T20:42:46.607Z,7.96
2023-01-16T20:47:43.393Z,8.08
2023-01-16T20:52:43.207Z,8.15
2023-01-16T20:57:40.760Z,8.06
2023-01-16T21:02:37.863Z,7.99
2023-01-16T21:07:34.984Z,7.85
2023-01-16T21:12:50.171Z,8.04
2023-01-16T21:18:05.774Z,7.86
2023-01-16T21:23:02.676Z,7.95
2023-01-16T21:28:00.877Z,8.22
2023-01-16T21:32:59.004Z,8.38
2023-01-16T21:37:55.948Z,8.33
2023-01-16T21:43:11.173Z,8.02
2023-01-16T21:48:11.178Z,8.28
2023-01-16T21:53:08.092Z,8.39
2023-01-16T21:58:05.045Z,8.14
2023-01-16T22:03:04.046Z,8.23
2023-01-16T22:08:01.584Z,7.74
2023-01-16T22:13:21.668Z,7.60
2023-01-16T22:18:21.348Z,7.08
2023-01-16T22:23:21.951Z,7.20
2023-01-16T22:28:20.481Z,7.14
2023-01-16T22:33:18.074Z,7.35
2023-01-16T22:38:14.953Z,7.54
2023-01-16T22:43:30.550Z,7.60
2023-01-16T22:48:27.581Z,7.52
2023-01-16T22:53:24.374Z,7.83
2023-01-16T22:58:23.237Z,7.96
2023-01-16T23:03:21.408Z,8.09
2023-01-16T23:08:20.388Z,8.07
2023-01-16T23:13:17.370Z,7.52
2023-01-16T23:18:15.075Z,7.92
2023-01-16T23:23:12.787Z,7.99
2023-01-16T23:28:09.712Z,8.07
2023-01-16T23:33:08.926Z,7.66
2023-01-16T23:38:06.547Z,7.36
2023-01-16T23:43:23.361Z,7.29
2023-01-16T23:48:20.705Z,7.06
2023-01-16T23:53:18.396Z,7.43
2023-01-16T23:58:15.306Z,7.48
